• Join FlightAware (Why Join?)
  • Login
  • US Flag 
10:06PM EDT


 

Airport Tracker/Info


-or-


 

Live Flight TrackerFlight Track Log ✈ SKW6345 ✈ 28-May-2014 ✈ KPHX - KDEN

Flight Track Log - Related Links

Times and Time Zones

All times are in EDT time to prevent confusion due to time zone crossing. See the SKW6345 flight status page for this flight to view local times or setup timezone preferences in your user account.

Time Position Orientation Groundspeed Altitude Reporting Facility
EDT Latitude Longitude Course Direction KTS MPH feet Rate Location/Type
10:32AM 33.4333 -111.9667 20° North 175 201 2,500  Level Phoenix TRACON
10:32AM 33.4333 -111.9333 90° East 220 253 3,600 1,980 Climbing Phoenix TRACON
10:33AM 33.4667 -111.8500 64° Northeast 271 312 5,700 2,100 Climbing Phoenix TRACON
10:34AM 33.5167 -111.7833 48° Northeast 291 335 7,800 1,980 Climbing Phoenix TRACON
10:35AM 33.9005 -111.7980 20° North  Level FlightAware Approximate
10:35AM 33.6000 -111.7667 North 310 357 9,800  Level Phoenix TRACON
10:36AM 34.0176 -111.7472 20° North  Level FlightAware Approximate
10:36AM 33.7000 -111.7667 360° North 374 430 10,000  Level Phoenix TRACON
10:37AM 34.1356 -111.6990 20° North  Level FlightAware Approximate
10:38AM 33.8436 -111.7475 North 386 444 12,500  Level Albuquerque Center
10:39AM 33.9489 -111.7372 North 386 444 14,400 2,040 Climbing Albuquerque Center
10:40AM 34.0758 -111.7197 North 389 448 16,800 1,920 Climbing Albuquerque Center
10:41AM 34.1697 -111.6628 27° Northeast 395 455 18,500 1,560 Climbing Albuquerque Center
10:42AM 34.2522 -111.5686 43° Northeast 405 466 20,100 1,500 Climbing Albuquerque Center
10:43AM 34.3364 -111.4722 43° Northeast 411 473 21,700 1,440 Climbing Albuquerque Center
10:44AM 34.4208 -111.3744 44° Northeast 416 479 23,100 1,080 Climbing Albuquerque Center
10:45AM 34.5078 -111.2733 44° Northeast 428 493 24,000 720 Climbing Albuquerque Center
10:46AM 34.6178 -111.1433 44° Northeast 458 527 24,600 660 Climbing Albuquerque Center
10:47AM 34.7142 -111.0319 44° Northeast 471 542 25,400 720 Climbing Albuquerque Center
10:48AM 34.8103 -110.9186 44° Northeast 479 551 26,200 900 Climbing Albuquerque Center
10:49AM 34.9072 -110.8025 44° Northeast 487 560 27,300 900 Climbing Albuquerque Center
10:50AM 35.0139 -110.6750 44° Northeast 486 559 28,100 840 Climbing Albuquerque Center
10:51AM 35.1086 -110.5658 43° Northeast 487 560 29,100 1,200 Climbing Albuquerque Center
10:52AM 35.2178 -110.4356 44° Northeast 488 562 30,700 1,380 Climbing Albuquerque Center
10:53AM 35.3047 -110.3308 44° Northeast 468 539 32,000 960 Climbing Albuquerque Center
10:54AM 35.4083 -110.2039 45° Northeast 468 539 32,700 720 Climbing Albuquerque Center
10:55AM 35.4992 -110.0939 45° Northeast 474 545 33,500 720 Climbing Albuquerque Center
10:56AM 35.6053 -109.9653 45° Northeast 475 547 34,200 480 Climbing Albuquerque Center
10:58AM 35.6978 -109.8519 45° Northeast 485 558 34,600 420 Climbing Albuquerque Center
10:59AM 35.8075 -109.7181 45° Northeast 492 566 35,200 480 Climbing Albuquerque Center
11:00AM 35.8869 -109.5864 53° Northeast 495 570 35,700 480 Climbing Albuquerque Center
11:01AM 35.9678 -109.4225 59° Northeast 498 573 36,200 480 Climbing Albuquerque Center
11:02AM 36.0383 -109.2833 58° Northeast 498 573 36,700 360 Climbing Albuquerque Center
11:03AM 36.1294 -109.1650 46° Northeast 497 572 37,000 120 Climbing Albuquerque Center
11:04AM 36.2447 -109.0314 43° Northeast 498 573 37,000  Level Albuquerque Center
11:05AM 36.3447 -108.9161 43° Northeast 499 574 37,000  Level Albuquerque Center
11:06AM 36.4914 -108.7422 44° Northeast 502 578 37,000  Level Denver Center
11:07AM 36.5878 -108.6275 44° Northeast 501 577 37,000  Level Denver Center
11:08AM 36.6853 -108.5128 43° Northeast 501 577 37,000  Level Denver Center
11:09AM 36.7958 -108.3797 43° Northeast 498 573 37,000  Level Denver Center
11:10AM 36.8012 -108.3775 43° Northeast  Level FlightAware Approximate
11:10AM 36.8925 -108.2644 44° Northeast 498 573 37,000  Level Denver Center
11:11AM 37.0039 -108.1317 44° Northeast 498 573 37,000  Level Denver Center
11:12AM 37.1000 -108.0172 44° Northeast 498 573 37,000  Level Denver Center
11:14AM 37.3061 -107.7661 43° Northeast 497 572 37,000  Level Denver Center
11:16AM 37.5128 -107.5139 44° Northeast 498 573 37,000  Level Denver Center
11:17AM 37.6244 -107.3792 44° Northeast 498 573 37,000  Level Denver Center
11:19AM 37.7183 -107.2617 45° Northeast 498 573 37,000  Level Denver Center
11:20AM 37.8222 -107.1356 44° Northeast 497 572 37,000  Level Denver Center
11:21AM 37.8105 -107.1740 43° Northeast  Level FlightAware Approximate
11:21AM 37.9300 -107.0000 45° Northeast 492 566 37,000  Level Denver Center
11:22AM 38.0244 -106.8833 44° Northeast 492 566 36,800 -420 Descending Denver Center
11:23AM 38.1300 -106.7492 45° Northeast 487 560 36,200 -540 Descending Denver Center
11:24AM 38.2194 -106.6372 44° Northeast 476 548 35,700 -540 Descending Denver Center
11:25AM 38.3083 -106.5258 45° Northeast 474 545 35,200 -360 Descending Denver Center
11:26AM 38.4000 -106.4094 45° Northeast 473 544 35,000 -120 Descending Denver Center
11:27AM 38.5058 -106.2750 45° Northeast 455 524 35,000 -660 Level Denver Center
11:28AM 38.5908 -106.1653 45° Northeast 448 516 33,700 -1,440 Descending Denver Center
11:29AM 38.6900 -106.0392 45° Northeast 475 547 32,100 -1,800 Descending Denver Center
11:30AM 38.7844 -105.9183 45° Northeast 478 550 30,000 -2,520 Descending Denver Center
11:31AM 38.8750 -105.8031 45° Northeast 467 537 26,900 -3,240 Descending Denver Center
11:32AM 38.9742 -105.6739 45° Northeast 443 510 23,400 -3,180 Descending Denver Center
11:33AM 39.0564 -105.5656 46° Northeast 429 494 20,400 -2,160 Descending Denver Center
11:34AM 39.1308 -105.4672 46° Northeast 382 440 19,000 -1,320 Descending Denver Center
11:35AM 39.2053 -105.3775 43° Northeast 346 398 17,700 -1,200 Descending Denver Center
11:36AM 39.2586 -105.2903 52° Northeast 307 353 16,600 -1,200 Descending Denver Center
11:37AM 39.3047 -105.1931 58° Northeast 296 341 15,200 -1,320 Descending Denver Center
11:38AM 39.3583 -105.0881 57° Northeast 347 399 13,900 -1,080 Descending Denver Center
11:39AM 39.4178 -104.9628 58° Northeast 377 434 13,000 -660 Descending Denver Center
11:40AM 39.4747 -104.8767 49° Northeast 315 362 12,600 -1,140 Descending Denver Center
11:41AM 39.5544 -104.8153 31° Northeast 309 356 10,700 -1,800 Descending Denver Center
11:42AM 39.6258 -104.7594 31° Northeast 308 354 8,900 -1,380 Descending Denver Center
11:43AM 39.6986 -104.7025 31° Northeast 289 333 7,900 -1,020 Descending Denver Center
11:44AM 39.7539 -104.6656 27° Northeast 225 259 6,900 -1,020 Descending Denver Center
11:45AM 39.8031 -104.6608 North 166 191 5,900 -720 Descending Denver Center
11:46AM 39.8394 -104.6608 360° North 156 180 5,400 -480 Descending Denver Center